Terminal Aerodrome Forecast
Issued by NWS Jackson, KY

Home | Current Version | Previous Version | Text Only | Print | Product List | Glossary On
Versions: 1 2 3 4 5 6 7 8 9 10 11 12 13 14 15 16 17 18 19 20 21 22 23
170
FTUS43 KJKL 301138
TAFLOZ
TAF
KLOZ 301138Z 3012/3112 VRB03KT P6SM BKN015
     FM301500 25005KT P6SM VCTS SCT020CB BKN025
     FM301800 25006KT P6SM VCTS SCT025CB BKN040
     FM310200 VRB03KT P6SM SCT025 BKN250
     FM310800 00000KT 3SM BR SCT001 BKN025=

USA.gov is the U.S. government's official web portal to all federal, state and local government web resources and services.